sensor_id;sensor_type;location;lat;lon;timestamp;temperature;humidity
40085;DHT22;25786;51.504;7.344;2023-05-29T00:01:50;14.50;65.10
40085;DHT22;25786;51.504;7.344;2023-05-29T00:04:15;14.50;65.80
40085;DHT22;25786;51.504;7.344;2023-05-29T00:06:41;14.40;66.30
40085;DHT22;25786;51.504;7.344;2023-05-29T00:09:06;14.30;66.60
40085;DHT22;25786;51.504;7.344;2023-05-29T00:11:32;14.50;66.00
40085;DHT22;25786;51.504;7.344;2023-05-29T00:13:57;14.40;66.40
40085;DHT22;25786;51.504;7.344;2023-05-29T00:16:23;14.40;66.70
40085;DHT22;25786;51.504;7.344;2023-05-29T00:18:49;14.20;67.10
40085;DHT22;25786;51.504;7.344;2023-05-29T00:21:15;14.30;66.80
40085;DHT22;25786;51.504;7.344;2023-05-29T00:23:41;14.20;67.10
40085;DHT22;25786;51.504;7.344;2023-05-29T00:26:06;14.20;67.50
40085;DHT22;25786;51.504;7.344;2023-05-29T00:28:32;14.10;67.30
40085;DHT22;25786;51.504;7.344;2023-05-29T00:30:57;14.10;67.70
40085;DHT22;25786;51.504;7.344;2023-05-29T00:33:23;14.10;67.90
40085;DHT22;25786;51.504;7.344;2023-05-29T00:35:48;14.20;67.70
40085;DHT22;25786;51.504;7.344;2023-05-29T00:38:14;14.10;68.30
40085;DHT22;25786;51.504;7.344;2023-05-29T00:40:39;14.00;68.90
40085;DHT22;25786;51.504;7.344;2023-05-29T00:43:05;14.00;69.10
40085;DHT22;25786;51.504;7.344;2023-05-29T00:45:30;14.00;69.40
40085;DHT22;25786;51.504;7.344;2023-05-29T00:47:57;13.90;69.50
40085;DHT22;25786;51.504;7.344;2023-05-29T00:50:23;13.80;69.90
40085;DHT22;25786;51.504;7.344;2023-05-29T00:52:49;13.70;70.30
40085;DHT22;25786;51.504;7.344;2023-05-29T00:55:14;13.60;70.60
40085;DHT22;25786;51.504;7.344;2023-05-29T00:57:40;13.60;70.90
40085;DHT22;25786;51.504;7.344;2023-05-29T01:00:06;13.60;71.10
40085;DHT22;25786;51.504;7.344;2023-05-29T01:02:39;13.50;71.20
40085;DHT22;25786;51.504;7.344;2023-05-29T01:05:05;13.50;71.10
40085;DHT22;25786;51.504;7.344;2023-05-29T01:07:31;13.30;71.50
40085;DHT22;25786;51.504;7.344;2023-05-29T01:09:56;13.30;71.60
40085;DHT22;25786;51.504;7.344;2023-05-29T01:12:27;13.20;72.10
40085;DHT22;25786;51.504;7.344;2023-05-29T01:20:14;12.90;72.70
40085;DHT22;25786;51.504;7.344;2023-05-29T01:25:44;12.90;72.70
40085;DHT22;25786;51.504;7.344;2023-05-29T01:28:12;13.00;71.60
40085;DHT22;25786;51.504;7.344;2023-05-29T01:30:38;12.90;71.70
40085;DHT22;25786;51.504;7.344;2023-05-29T01:33:05;12.80;71.60
40085;DHT22;25786;51.504;7.344;2023-05-29T01:35:30;12.60;72.10
40085;DHT22;25786;51.504;7.344;2023-05-29T01:37:56;12.60;72.00
40085;DHT22;25786;51.504;7.344;2023-05-29T01:40:21;12.60;71.50
40085;DHT22;25786;51.504;7.344;2023-05-29T01:42:47;12.50;71.50
40085;DHT22;25786;51.504;7.344;2023-05-29T01:45:13;12.50;71.90
40085;DHT22;25786;51.504;7.344;2023-05-29T01:47:38;12.50;72.20
40085;DHT22;25786;51.504;7.344;2023-05-29T01:50:04;12.50;72.40
40085;DHT22;25786;51.504;7.344;2023-05-29T01:52:31;12.60;71.50
40085;DHT22;25786;51.504;7.344;2023-05-29T01:54:57;12.50;71.80
40085;DHT22;25786;51.504;7.344;2023-05-29T01:57:22;12.40;72.40
40085;DHT22;25786;51.504;7.344;2023-05-29T01:59:48;12.40;72.70
40085;DHT22;25786;51.504;7.344;2023-05-29T02:02:14;12.40;72.60
40085;DHT22;25786;51.504;7.344;2023-05-29T02:04:39;12.30;72.60
40085;DHT22;25786;51.504;7.344;2023-05-29T02:07:05;12.30;72.90
40085;DHT22;25786;51.504;7.344;2023-05-29T02:09:32;12.30;72.50
40085;DHT22;25786;51.504;7.344;2023-05-29T02:11:57;12.30;73.00
40085;DHT22;25786;51.504;7.344;2023-05-29T02:14:23;12.30;72.60
40085;DHT22;25786;51.504;7.344;2023-05-29T02:16:50;12.30;72.50
40085;DHT22;25786;51.504;7.344;2023-05-29T02:19:17;12.20;73.10
40085;DHT22;25786;51.504;7.344;2023-05-29T02:21:43;12.10;73.70
40085;DHT22;25786;51.504;7.344;2023-05-29T02:24:09;12.10;73.40
40085;DHT22;25786;51.504;7.344;2023-05-29T02:26:34;12.10;73.50
40085;DHT22;25786;51.504;7.344;2023-05-29T02:29:02;12.10;73.30
40085;DHT22;25786;51.504;7.344;2023-05-29T02:31:28;12.00;73.80
40085;DHT22;25786;51.504;7.344;2023-05-29T02:33:53;12.10;73.60
40085;DHT22;25786;51.504;7.344;2023-05-29T02:36:18;12.10;73.30
40085;DHT22;25786;51.504;7.344;2023-05-29T02:38:44;12.00;74.00
40085;DHT22;25786;51.504;7.344;2023-05-29T02:41:10;12.10;74.20
40085;DHT22;25786;51.504;7.344;2023-05-29T02:43:35;12.10;74.40
40085;DHT22;25786;51.504;7.344;2023-05-29T02:46:00;12.00;74.30
40085;DHT22;25786;51.504;7.344;2023-05-29T02:48:26;12.00;74.30
40085;DHT22;25786;51.504;7.344;2023-05-29T02:50:51;11.80;74.60
40085;DHT22;25786;51.504;7.344;2023-05-29T02:53:17;11.80;75.00
40085;DHT22;25786;51.504;7.344;2023-05-29T02:55:42;11.70;75.30
40085;DHT22;25786;51.504;7.344;2023-05-29T02:58:08;11.80;75.90
40085;DHT22;25786;51.504;7.344;2023-05-29T03:00:34;11.90;75.70
40085;DHT22;25786;51.504;7.344;2023-05-29T03:02:59;12.00;74.90
40085;DHT22;25786;51.504;7.344;2023-05-29T03:05:25;12.00;74.50
40085;DHT22;25786;51.504;7.344;2023-05-29T03:07:51;11.90;75.20
40085;DHT22;25786;51.504;7.344;2023-05-29T03:10:16;12.00;74.80
40085;DHT22;25786;51.504;7.344;2023-05-29T03:12:42;11.90;74.60
40085;DHT22;25786;51.504;7.344;2023-05-29T03:15:09;11.60;75.10
40085;DHT22;25786;51.504;7.344;2023-05-29T03:17:34;11.60;75.80
40085;DHT22;25786;51.504;7.344;2023-05-29T03:20:02;11.60;75.80
40085;DHT22;25786;51.504;7.344;2023-05-29T03:22:31;11.60;75.60
40085;DHT22;25786;51.504;7.344;2023-05-29T03:24:57;11.60;75.50
40085;DHT22;25786;51.504;7.344;2023-05-29T03:27:22;11.60;75.50
40085;DHT22;25786;51.504;7.344;2023-05-29T03:29:47;11.60;76.00
40085;DHT22;25786;51.504;7.344;2023-05-29T03:32:13;11.60;76.10
40085;DHT22;25786;51.504;7.344;2023-05-29T03:34:38;11.60;76.10
40085;DHT22;25786;51.504;7.344;2023-05-29T03:37:05;11.60;76.10
40085;DHT22;25786;51.504;7.344;2023-05-29T03:39:30;11.60;76.10
40085;DHT22;25786;51.504;7.344;2023-05-29T03:41:56;11.60;75.90
40085;DHT22;25786;51.504;7.344;2023-05-29T03:44:21;11.60;75.90
40085;DHT22;25786;51.504;7.344;2023-05-29T03:46:46;11.60;76.20
40085;DHT22;25786;51.504;7.344;2023-05-29T03:49:12;11.50;76.20
40085;DHT22;25786;51.504;7.344;2023-05-29T03:51:37;11.50;76.70
40085;DHT22;25786;51.504;7.344;2023-05-29T03:54:03;11.50;76.70
40085;DHT22;25786;51.504;7.344;2023-05-29T03:56:28;11.60;75.70
40085;DHT22;25786;51.504;7.344;2023-05-29T03:58:54;11.60;76.20
40085;DHT22;25786;51.504;7.344;2023-05-29T04:01:20;11.70;75.60
40085;DHT22;25786;51.504;7.344;2023-05-29T04:03:45;11.60;76.10
40085;DHT22;25786;51.504;7.344;2023-05-29T04:06:11;11.60;76.00
40085;DHT22;25786;51.504;7.344;2023-05-29T04:08:36;11.60;76.00
40085;DHT22;25786;51.504;7.344;2023-05-29T04:11:02;11.60;76.50
40085;DHT22;25786;51.504;7.344;2023-05-29T04:13:29;11.50;76.40
40085;DHT22;25786;51.504;7.344;2023-05-29T04:15:54;11.50;77.00
40085;DHT22;25786;51.504;7.344;2023-05-29T04:18:20;11.50;76.90
40085;DHT22;25786;51.504;7.344;2023-05-29T04:20:46;11.60;77.00
40085;DHT22;25786;51.504;7.344;2023-05-29T04:23:12;11.60;76.50
40085;DHT22;25786;51.504;7.344;2023-05-29T04:25:38;11.60;76.20
40085;DHT22;25786;51.504;7.344;2023-05-29T04:28:03;11.60;77.00
40085;DHT22;25786;51.504;7.344;2023-05-29T04:30:29;11.70;76.10
40085;DHT22;25786;51.504;7.344;2023-05-29T04:32:55;11.60;76.70
40085;DHT22;25786;51.504;7.344;2023-05-29T04:35:20;11.60;77.10
40085;DHT22;25786;51.504;7.344;2023-05-29T04:37:47;11.80;75.90
40085;DHT22;25786;51.504;7.344;2023-05-29T04:40:12;11.90;75.00
40085;DHT22;25786;51.504;7.344;2023-05-29T04:42:42;11.80;75.70
40085;DHT22;25786;51.504;7.344;2023-05-29T04:45:10;11.70;76.10
40085;DHT22;25786;51.504;7.344;2023-05-29T04:47:36;11.80;76.40
40085;DHT22;25786;51.504;7.344;2023-05-29T04:50:09;11.80;75.80
40085;DHT22;25786;51.504;7.344;2023-05-29T04:52:36;11.90;75.80
40085;DHT22;25786;51.504;7.344;2023-05-29T04:55:02;12.00;75.10
40085;DHT22;25786;51.504;7.344;2023-05-29T04:57:28;11.90;75.30
40085;DHT22;25786;51.504;7.344;2023-05-29T04:59:53;12.00;75.20
40085;DHT22;25786;51.504;7.344;2023-05-29T05:02:19;12.10;75.20
40085;DHT22;25786;51.504;7.344;2023-05-29T05:04:44;12.10;75.60
40085;DHT22;25786;51.504;7.344;2023-05-29T05:07:10;12.10;75.00
40085;DHT22;25786;51.504;7.344;2023-05-29T05:09:36;12.10;74.80
40085;DHT22;25786;51.504;7.344;2023-05-29T05:12:01;12.10;74.20
40085;DHT22;25786;51.504;7.344;2023-05-29T05:14:27;12.10;74.20
40085;DHT22;25786;51.504;7.344;2023-05-29T05:16:53;12.10;74.70
40085;DHT22;25786;51.504;7.344;2023-05-29T05:19:19;12.10;74.70
40085;DHT22;25786;51.504;7.344;2023-05-29T05:21:45;12.20;74.50
40085;DHT22;25786;51.504;7.344;2023-05-29T05:24:10;12.20;74.70
40085;DHT22;25786;51.504;7.344;2023-05-29T05:26:35;12.40;74.30
40085;DHT22;25786;51.504;7.344;2023-05-29T05:29:01;12.50;73.50
40085;DHT22;25786;51.504;7.344;2023-05-29T05:31:26;12.50;73.10
40085;DHT22;25786;51.504;7.344;2023-05-29T05:33:52;12.50;73.00
40085;DHT22;25786;51.504;7.344;2023-05-29T05:36:18;12.60;72.40
40085;DHT22;25786;51.504;7.344;2023-05-29T05:38:43;12.70;72.00
40085;DHT22;25786;51.504;7.344;2023-05-29T05:41:09;12.60;72.70
40085;DHT22;25786;51.504;7.344;2023-05-29T05:43:35;12.80;73.00
40085;DHT22;25786;51.504;7.344;2023-05-29T05:46:00;13.00;71.30
40085;DHT22;25786;51.504;7.344;2023-05-29T05:48:26;13.00;70.80
40085;DHT22;25786;51.504;7.344;2023-05-29T05:50:51;13.10;70.00
40085;DHT22;25786;51.504;7.344;2023-05-29T05:53:17;13.00;70.90
40085;DHT22;25786;51.504;7.344;2023-05-29T05:55:42;13.10;70.70
40085;DHT22;25786;51.504;7.344;2023-05-29T05:58:08;13.00;70.80
40085;DHT22;25786;51.504;7.344;2023-05-29T06:00:33;13.00;71.40
40085;DHT22;25786;51.504;7.344;2023-05-29T06:02:58;13.00;71.70
40085;DHT22;25786;51.504;7.344;2023-05-29T06:05:25;13.00;71.20
40085;DHT22;25786;51.504;7.344;2023-05-29T06:07:51;13.10;71.20
40085;DHT22;25786;51.504;7.344;2023-05-29T06:10:16;13.00;71.80
40085;DHT22;25786;51.504;7.344;2023-05-29T06:12:41;13.10;71.30
40085;DHT22;25786;51.504;7.344;2023-05-29T06:15:07;13.00;71.90
40085;DHT22;25786;51.504;7.344;2023-05-29T06:17:33;13.00;71.10
40085;DHT22;25786;51.504;7.344;2023-05-29T06:19:58;13.10;71.30
40085;DHT22;25786;51.504;7.344;2023-05-29T06:22:24;13.00;71.90
40085;DHT22;25786;51.504;7.344;2023-05-29T06:24:49;13.10;71.80
40085;DHT22;25786;51.504;7.344;2023-05-29T06:27:15;13.20;70.40
40085;DHT22;25786;51.504;7.344;2023-05-29T06:29:40;13.20;70.40
40085;DHT22;25786;51.504;7.344;2023-05-29T06:32:06;13.10;70.60
40085;DHT22;25786;51.504;7.344;2023-05-29T06:34:31;13.10;70.60
40085;DHT22;25786;51.504;7.344;2023-05-29T06:36:56;13.20;71.20
40085;DHT22;25786;51.504;7.344;2023-05-29T06:39:22;13.30;71.40
40085;DHT22;25786;51.504;7.344;2023-05-29T06:41:47;13.30;70.70
40085;DHT22;25786;51.504;7.344;2023-05-29T06:44:13;13.40;70.70
40085;DHT22;25786;51.504;7.344;2023-05-29T06:46:38;13.50;70.20
40085;DHT22;25786;51.504;7.344;2023-05-29T06:49:04;13.50;70.80
40085;DHT22;25786;51.504;7.344;2023-05-29T06:51:29;13.60;70.40
40085;DHT22;25786;51.504;7.344;2023-05-29T06:53:55;13.70;69.40
40085;DHT22;25786;51.504;7.344;2023-05-29T06:56:20;13.60;69.90
40085;DHT22;25786;51.504;7.344;2023-05-29T06:58:47;13.60;70.20
40085;DHT22;25786;51.504;7.344;2023-05-29T07:01:12;13.50;70.50
40085;DHT22;25786;51.504;7.344;2023-05-29T07:03:38;13.40;70.40
40085;DHT22;25786;51.504;7.344;2023-05-29T07:06:03;13.40;70.70
40085;DHT22;25786;51.504;7.344;2023-05-29T07:08:29;13.30;72.10
40085;DHT22;25786;51.504;7.344;2023-05-29T07:10:55;13.30;71.00
40085;DHT22;25786;51.504;7.344;2023-05-29T07:13:20;13.30;71.50
40085;DHT22;25786;51.504;7.344;2023-05-29T07:15:46;13.50;71.60
40085;DHT22;25786;51.504;7.344;2023-05-29T07:18:11;13.60;69.50
40085;DHT22;25786;51.504;7.344;2023-05-29T07:20:37;13.70;70.70
40085;DHT22;25786;51.504;7.344;2023-05-29T07:23:02;13.70;70.10
40085;DHT22;25786;51.504;7.344;2023-05-29T07:25:29;13.60;70.20
40085;DHT22;25786;51.504;7.344;2023-05-29T07:27:54;13.70;70.10
40085;DHT22;25786;51.504;7.344;2023-05-29T07:30:20;13.70;70.70
40085;DHT22;25786;51.504;7.344;2023-05-29T07:32:45;13.80;70.50
40085;DHT22;25786;51.504;7.344;2023-05-29T07:35:11;13.90;71.00
40085;DHT22;25786;51.504;7.344;2023-05-29T07:37:36;14.00;70.20
40085;DHT22;25786;51.504;7.344;2023-05-29T07:40:02;14.10;69.60
40085;DHT22;25786;51.504;7.344;2023-05-29T07:42:31;14.30;68.90
40085;DHT22;25786;51.504;7.344;2023-05-29T07:44:57;14.40;67.70
40085;DHT22;25786;51.504;7.344;2023-05-29T07:47:22;14.30;68.30
40085;DHT22;25786;51.504;7.344;2023-05-29T07:49:47;14.30;68.30
40085;DHT22;25786;51.504;7.344;2023-05-29T07:52:13;14.30;68.70
40085;DHT22;25786;51.504;7.344;2023-05-29T07:54:38;14.30;69.60
40085;DHT22;25786;51.504;7.344;2023-05-29T07:57:04;14.40;67.80
40085;DHT22;25786;51.504;7.344;2023-05-29T07:59:35;14.60;68.00
40085;DHT22;25786;51.504;7.344;2023-05-29T08:02:00;14.60;67.50
40085;DHT22;25786;51.504;7.344;2023-05-29T08:04:28;14.70;67.40
40085;DHT22;25786;51.504;7.344;2023-05-29T08:06:53;14.80;67.60
40085;DHT22;25786;51.504;7.344;2023-05-29T08:09:19;14.60;68.20
40085;DHT22;25786;51.504;7.344;2023-05-29T08:11:44;14.80;69.10
40085;DHT22;25786;51.504;7.344;2023-05-29T08:14:11;14.80;68.70
40085;DHT22;25786;51.504;7.344;2023-05-29T08:16:37;14.90;68.80
40085;DHT22;25786;51.504;7.344;2023-05-29T08:19:02;15.00;68.50
40085;DHT22;25786;51.504;7.344;2023-05-29T08:21:29;15.00;66.60
40085;DHT22;25786;51.504;7.344;2023-05-29T08:23:55;15.00;66.40
40085;DHT22;25786;51.504;7.344;2023-05-29T08:26:20;15.10;66.40
40085;DHT22;25786;51.504;7.344;2023-05-29T08:28:46;15.10;66.70
40085;DHT22;25786;51.504;7.344;2023-05-29T08:31:11;15.20;66.50
40085;DHT22;25786;51.504;7.344;2023-05-29T08:33:37;15.20;66.70
40085;DHT22;25786;51.504;7.344;2023-05-29T08:36:02;15.20;66.80
40085;DHT22;25786;51.504;7.344;2023-05-29T08:38:28;15.30;65.90
40085;DHT22;25786;51.504;7.344;2023-05-29T08:40:55;15.30;66.30
40085;DHT22;25786;51.504;7.344;2023-05-29T08:43:22;15.50;67.70
40085;DHT22;25786;51.504;7.344;2023-05-29T08:45:48;15.60;66.50
40085;DHT22;25786;51.504;7.344;2023-05-29T08:48:18;15.70;63.90
40085;DHT22;25786;51.504;7.344;2023-05-29T08:50:44;15.70;64.00
40085;DHT22;25786;51.504;7.344;2023-05-29T08:53:13;15.80;63.40
40085;DHT22;25786;51.504;7.344;2023-05-29T08:55:40;15.80;63.20
40085;DHT22;25786;51.504;7.344;2023-05-29T08:58:06;15.60;65.20
40085;DHT22;25786;51.504;7.344;2023-05-29T09:00:32;15.70;65.70
40085;DHT22;25786;51.504;7.344;2023-05-29T09:02:58;15.90;65.40
40085;DHT22;25786;51.504;7.344;2023-05-29T09:05:25;16.00;64.20
40085;DHT22;25786;51.504;7.344;2023-05-29T09:07:53;15.90;64.00
40085;DHT22;25786;51.504;7.344;2023-05-29T09:10:18;16.00;63.80
40085;DHT22;25786;51.504;7.344;2023-05-29T09:12:44;16.00;62.60
40085;DHT22;25786;51.504;7.344;2023-05-29T09:15:17;16.10;64.30
40085;DHT22;25786;51.504;7.344;2023-05-29T09:17:44;16.20;63.50
40085;DHT22;25786;51.504;7.344;2023-05-29T09:20:15;16.30;63.30
40085;DHT22;25786;51.504;7.344;2023-05-29T09:22:46;16.20;64.00
40085;DHT22;25786;51.504;7.344;2023-05-29T09:25:17;16.40;61.90
40085;DHT22;25786;51.504;7.344;2023-05-29T09:27:46;16.30;61.50
40085;DHT22;25786;51.504;7.344;2023-05-29T09:30:12;16.30;62.20
40085;DHT22;25786;51.504;7.344;2023-05-29T09:32:55;16.20;62.90
40085;DHT22;25786;51.504;7.344;2023-05-29T09:35:21;16.40;61.90
40085;DHT22;25786;51.504;7.344;2023-05-29T09:37:46;16.30;61.00
40085;DHT22;25786;51.504;7.344;2023-05-29T09:40:12;16.10;61.80
40085;DHT22;25786;51.504;7.344;2023-05-29T09:42:40;16.10;61.70
40085;DHT22;25786;51.504;7.344;2023-05-29T09:45:05;16.20;63.90
40085;DHT22;25786;51.504;7.344;2023-05-29T09:47:35;16.10;62.80
40085;DHT22;25786;51.504;7.344;2023-05-29T09:50:01;16.30;62.90
40085;DHT22;25786;51.504;7.344;2023-05-29T09:52:26;16.20;62.80
40085;DHT22;25786;51.504;7.344;2023-05-29T09:54:55;16.40;61.50
40085;DHT22;25786;51.504;7.344;2023-05-29T09:57:22;16.40;63.30
40085;DHT22;25786;51.504;7.344;2023-05-29T09:59:49;16.50;62.10
40085;DHT22;25786;51.504;7.344;2023-05-29T10:02:17;16.50;61.00
40085;DHT22;25786;51.504;7.344;2023-05-29T10:04:43;16.60;63.20
40085;DHT22;25786;51.504;7.344;2023-05-29T10:07:20;16.80;60.60
40085;DHT22;25786;51.504;7.344;2023-05-29T10:09:51;16.80;60.40
40085;DHT22;25786;51.504;7.344;2023-05-29T10:12:19;17.00;60.90
40085;DHT22;25786;51.504;7.344;2023-05-29T10:14:46;17.00;61.60
40085;DHT22;25786;51.504;7.344;2023-05-29T10:17:15;16.80;60.50
40085;DHT22;25786;51.504;7.344;2023-05-29T10:19:41;16.90;60.00
40085;DHT22;25786;51.504;7.344;2023-05-29T10:22:07;16.80;60.40
40085;DHT22;25786;51.504;7.344;2023-05-29T10:24:34;17.10;59.80
40085;DHT22;25786;51.504;7.344;2023-05-29T10:27:02;17.10;60.00
40085;DHT22;25786;51.504;7.344;2023-05-29T10:29:34;17.10;59.90
40085;DHT22;25786;51.504;7.344;2023-05-29T10:32:20;17.10;59.50
40085;DHT22;25786;51.504;7.344;2023-05-29T10:39:37;17.30;60.20
40085;DHT22;25786;51.504;7.344;2023-05-29T10:42:07;17.30;58.20
40085;DHT22;25786;51.504;7.344;2023-05-29T10:44:48;17.30;61.30
40085;DHT22;25786;51.504;7.344;2023-05-29T10:47:17;17.30;60.70
40085;DHT22;25786;51.504;7.344;2023-05-29T10:49:50;17.40;59.00
40085;DHT22;25786;51.504;7.344;2023-05-29T10:52:18;17.60;61.60
40085;DHT22;25786;51.504;7.344;2023-05-29T10:54:50;17.60;61.40
40085;DHT22;25786;51.504;7.344;2023-05-29T10:57:17;17.60;60.20
40085;DHT22;25786;51.504;7.344;2023-05-29T10:59:44;17.70;60.20
40085;DHT22;25786;51.504;7.344;2023-05-29T11:02:09;17.70;58.80
40085;DHT22;25786;51.504;7.344;2023-05-29T11:04:35;17.70;58.00
40085;DHT22;25786;51.504;7.344;2023-05-29T11:07:02;17.70;57.10
40085;DHT22;25786;51.504;7.344;2023-05-29T11:09:35;17.80;59.70
40085;DHT22;25786;51.504;7.344;2023-05-29T11:17:30;17.90;57.60
40085;DHT22;25786;51.504;7.344;2023-05-29T11:19:56;17.90;57.40
40085;DHT22;25786;51.504;7.344;2023-05-29T11:22:23;17.80;57.30
40085;DHT22;25786;51.504;7.344;2023-05-29T11:24:51;17.80;60.10
40085;DHT22;25786;51.504;7.344;2023-05-29T11:27:18;18.10;60.30
40085;DHT22;25786;51.504;7.344;2023-05-29T11:29:44;18.20;57.70
40085;DHT22;25786;51.504;7.344;2023-05-29T11:32:12;18.30;56.10
40085;DHT22;25786;51.504;7.344;2023-05-29T11:34:40;18.30;57.30
40085;DHT22;25786;51.504;7.344;2023-05-29T11:37:05;18.30;55.70
40085;DHT22;25786;51.504;7.344;2023-05-29T11:39:35;18.30;58.20
40085;DHT22;25786;51.504;7.344;2023-05-29T11:42:00;18.30;57.40
40085;DHT22;25786;51.504;7.344;2023-05-29T11:44:26;18.30;56.70
40085;DHT22;25786;51.504;7.344;2023-05-29T11:47:03;18.20;58.40
40085;DHT22;25786;51.504;7.344;2023-05-29T11:49:30;18.40;57.60
40085;DHT22;25786;51.504;7.344;2023-05-29T11:52:05;18.50;56.20
40085;DHT22;25786;51.504;7.344;2023-05-29T11:54:30;18.50;56.60
40085;DHT22;25786;51.504;7.344;2023-05-29T11:56:56;18.60;54.80
40085;DHT22;25786;51.504;7.344;2023-05-29T11:59:21;18.40;57.60
40085;DHT22;25786;51.504;7.344;2023-05-29T12:01:46;18.30;60.40
40085;DHT22;25786;51.504;7.344;2023-05-29T12:04:14;18.30;59.30
40085;DHT22;25786;51.504;7.344;2023-05-29T12:06:40;18.30;57.90
40085;DHT22;25786;51.504;7.344;2023-05-29T12:09:07;18.30;58.60
40085;DHT22;25786;51.504;7.344;2023-05-29T12:11:33;18.40;58.70
40085;DHT22;25786;51.504;7.344;2023-05-29T12:14:00;18.50;60.20
40085;DHT22;25786;51.504;7.344;2023-05-29T12:16:26;18.40;57.90
40085;DHT22;25786;51.504;7.344;2023-05-29T12:18:53;18.50;58.30
40085;DHT22;25786;51.504;7.344;2023-05-29T12:21:19;18.60;57.50
40085;DHT22;25786;51.504;7.344;2023-05-29T12:23:45;18.60;58.60
40085;DHT22;25786;51.504;7.344;2023-05-29T12:26:10;18.50;59.40
40085;DHT22;25786;51.504;7.344;2023-05-29T12:28:42;18.60;57.30
40085;DHT22;25786;51.504;7.344;2023-05-29T12:31:07;18.50;58.40
40085;DHT22;25786;51.504;7.344;2023-05-29T12:33:33;18.60;56.60
40085;DHT22;25786;51.504;7.344;2023-05-29T12:36:05;18.70;56.60
40085;DHT22;25786;51.504;7.344;2023-05-29T12:38:50;18.80;56.90
40085;DHT22;25786;51.504;7.344;2023-05-29T12:41:28;18.80;55.80
40085;DHT22;25786;51.504;7.344;2023-05-29T12:43:57;18.80;56.70
40085;DHT22;25786;51.504;7.344;2023-05-29T12:46:26;19.00;55.50
40085;DHT22;25786;51.504;7.344;2023-05-29T12:48:52;18.90;55.20
40085;DHT22;25786;51.504;7.344;2023-05-29T12:51:22;19.00;55.90
40085;DHT22;25786;51.504;7.344;2023-05-29T12:53:47;18.90;54.60
40085;DHT22;25786;51.504;7.344;2023-05-29T12:56:13;19.00;54.30
40085;DHT22;25786;51.504;7.344;2023-05-29T12:58:38;19.10;53.90
40085;DHT22;25786;51.504;7.344;2023-05-29T13:01:04;19.10;54.30
40085;DHT22;25786;51.504;7.344;2023-05-29T13:03:29;19.20;53.50
40085;DHT22;25786;51.504;7.344;2023-05-29T13:05:55;19.10;54.20
40085;DHT22;25786;51.504;7.344;2023-05-29T13:08:20;19.30;53.10
40085;DHT22;25786;51.504;7.344;2023-05-29T13:10:46;19.20;53.30
40085;DHT22;25786;51.504;7.344;2023-05-29T13:13:11;19.10;54.50
40085;DHT22;25786;51.504;7.344;2023-05-29T13:15:37;19.10;53.30
40085;DHT22;25786;51.504;7.344;2023-05-29T13:18:05;19.30;53.20
40085;DHT22;25786;51.504;7.344;2023-05-29T13:20:31;19.10;54.20
40085;DHT22;25786;51.504;7.344;2023-05-29T13:22:57;19.10;53.80
40085;DHT22;25786;51.504;7.344;2023-05-29T13:25:22;19.10;53.70
40085;DHT22;25786;51.504;7.344;2023-05-29T13:27:49;19.00;56.20
40085;DHT22;25786;51.504;7.344;2023-05-29T13:30:15;18.90;55.20
40085;DHT22;25786;51.504;7.344;2023-05-29T13:32:41;18.90;56.60
40085;DHT22;25786;51.504;7.344;2023-05-29T13:35:06;18.90;56.00
40085;DHT22;25786;51.504;7.344;2023-05-29T13:37:32;19.00;53.60
40085;DHT22;25786;51.504;7.344;2023-05-29T13:39:58;19.00;54.00
40085;DHT22;25786;51.504;7.344;2023-05-29T13:42:23;18.90;55.60
40085;DHT22;25786;51.504;7.344;2023-05-29T13:44:49;19.00;53.50
40085;DHT22;25786;51.504;7.344;2023-05-29T13:47:14;19.00;54.70
40085;DHT22;25786;51.504;7.344;2023-05-29T13:49:40;19.20;53.90
40085;DHT22;25786;51.504;7.344;2023-05-29T13:52:06;19.30;55.80
40085;DHT22;25786;51.504;7.344;2023-05-29T13:54:31;19.20;54.00
40085;DHT22;25786;51.504;7.344;2023-05-29T13:57:04;19.20;54.50
40085;DHT22;25786;51.504;7.344;2023-05-29T13:59:34;19.30;53.70
40085;DHT22;25786;51.504;7.344;2023-05-29T14:02:00;19.10;54.00
40085;DHT22;25786;51.504;7.344;2023-05-29T14:04:26;19.10;52.00
40085;DHT22;25786;51.504;7.344;2023-05-29T14:06:52;19.20;52.70
40085;DHT22;25786;51.504;7.344;2023-05-29T14:09:17;19.50;51.50
40085;DHT22;25786;51.504;7.344;2023-05-29T14:11:47;19.50;51.90
40085;DHT22;25786;51.504;7.344;2023-05-29T14:14:13;19.40;54.40
40085;DHT22;25786;51.504;7.344;2023-05-29T14:16:38;19.40;53.50
40085;DHT22;25786;51.504;7.344;2023-05-29T14:19:04;19.40;53.20
40085;DHT22;25786;51.504;7.344;2023-05-29T14:21:29;19.30;52.80
40085;DHT22;25786;51.504;7.344;2023-05-29T14:23:55;19.40;52.80
40085;DHT22;25786;51.504;7.344;2023-05-29T14:26:21;19.50;52.30
40085;DHT22;25786;51.504;7.344;2023-05-29T14:28:46;19.50;52.30
40085;DHT22;25786;51.504;7.344;2023-05-29T14:31:12;19.50;51.70
40085;DHT22;25786;51.504;7.344;2023-05-29T14:33:37;19.50;50.50
40085;DHT22;25786;51.504;7.344;2023-05-29T14:36:03;19.40;51.00
40085;DHT22;25786;51.504;7.344;2023-05-29T14:38:28;19.30;52.40
40085;DHT22;25786;51.504;7.344;2023-05-29T14:40:54;19.40;51.40
40085;DHT22;25786;51.504;7.344;2023-05-29T14:43:19;19.50;51.80
40085;DHT22;25786;51.504;7.344;2023-05-29T14:45:45;19.50;52.20
40085;DHT22;25786;51.504;7.344;2023-05-29T14:48:11;19.40;51.70
40085;DHT22;25786;51.504;7.344;2023-05-29T14:50:36;19.40;51.80
40085;DHT22;25786;51.504;7.344;2023-05-29T14:53:02;19.50;51.70
40085;DHT22;25786;51.504;7.344;2023-05-29T14:55:28;19.40;51.40
40085;DHT22;25786;51.504;7.344;2023-05-29T14:57:53;19.30;50.30
40085;DHT22;25786;51.504;7.344;2023-05-29T15:00:19;19.30;50.90
40085;DHT22;25786;51.504;7.344;2023-05-29T15:02:44;19.30;52.10
40085;DHT22;25786;51.504;7.344;2023-05-29T15:05:10;19.50;51.50
40085;DHT22;25786;51.504;7.344;2023-05-29T15:07:35;19.40;50.50
40085;DHT22;25786;51.504;7.344;2023-05-29T15:10:01;19.40;50.50
40085;DHT22;25786;51.504;7.344;2023-05-29T15:12:27;19.30;50.40
40085;DHT22;25786;51.504;7.344;2023-05-29T15:14:52;19.30;50.80
40085;DHT22;25786;51.504;7.344;2023-05-29T15:17:18;19.40;50.60
40085;DHT22;25786;51.504;7.344;2023-05-29T15:19:43;19.30;50.20
40085;DHT22;25786;51.504;7.344;2023-05-29T15:22:09;19.30;49.80
40085;DHT22;25786;51.504;7.344;2023-05-29T15:24:34;19.20;50.80
40085;DHT22;25786;51.504;7.344;2023-05-29T15:27:00;19.30;51.40
40085;DHT22;25786;51.504;7.344;2023-05-29T15:29:30;19.30;50.80
40085;DHT22;25786;51.504;7.344;2023-05-29T15:31:55;19.40;50.80
40085;DHT22;25786;51.504;7.344;2023-05-29T15:34:21;19.30;50.80
40085;DHT22;25786;51.504;7.344;2023-05-29T15:36:46;19.20;50.50
40085;DHT22;25786;51.504;7.344;2023-05-29T15:39:12;19.30;49.80
40085;DHT22;25786;51.504;7.344;2023-05-29T15:41:37;19.40;50.50
40085;DHT22;25786;51.504;7.344;2023-05-29T15:44:03;19.30;48.80